Time;durP1;ratioP1;P1;durP2;ratioP2;P2;SDS_P1;SDS_P2;PMS_P1;PMS_P2;Temp;Humidity;BMP_temperature;BMP_pressure;BME280_temperature;BME280_humidity;BME280_pressure;Samples;Min_cycle;Max_cycle;Signal;HPM_P1;HPM_P2
2023/02/14 00:02:09;;;;;;;;;;;;;;;2.51;76.41;99943.50;5021787;28;20428;-58
2023/02/14 00:04:41;;;;;;;;;;;;;;;2.65;75.71;99940.78;5022121;28;19929;-58
2023/02/14 00:07:34;;;;;;;;;;;;;;;2.49;76.86;99942.03;5029426;28;20031;-57
2023/02/14 00:10:04;;;;;;;;;;;;;;;2.47;76.78;99944.13;5027975;28;20285;-57
2023/02/14 00:12:31;;;;;;;;;;;;;;;2.52;76.93;99947.81;5026350;28;19956;-57
2023/02/14 00:17:46;;;;;;;;;;;;;;;2.57;76.96;99939.97;5025470;28;19929;-57
2023/02/14 00:20:39;;;;;;;;;;;;;;;2.58;77.60;99940.78;5028132;28;19932;-57
2023/02/14 00:23:07;;;;;;;;;;;;;;;2.62;77.14;99937.47;5026859;28;19948;-59
2023/02/14 00:25:37;;;;;;;;;;;;;;;2.60;77.59;99939.53;5025641;28;19932;-58
2023/02/14 00:28:05;;;;;;;;;;;;;;;2.55;77.76;99936.66;5029735;28;19933;-57
2023/02/14 00:30:34;;;;;;;;;;;;;;;2.68;77.63;99941.19;5027244;28;20326;-59
2023/02/14 00:33:04;;;;;;;;;;;;;;;2.80;77.29;99944.03;5031532;28;20385;-57
2023/02/14 00:35:33;;;;;;;;;;;;;;;2.76;77.64;99949.00;5014525;28;19944;-56
2023/02/14 00:38:01;;;;;;;;;;;;;;;2.64;78.02;99939.94;5031143;28;19925;-57
2023/02/14 00:40:29;;;;;;;;;;;;;;;2.78;77.83;99941.56;5030053;28;19948;-60
2023/02/14 00:43:24;;;;;;;;;;;;;;;2.70;77.79;99944.47;5031740;28;19952;-58
2023/02/14 00:45:52;;;;;;;;;;;;;;;2.57;78.31;99941.81;5003911;28;19929;-57
2023/02/14 00:48:19;;;;;;;;;;;;;;;2.67;78.44;99944.91;5010565;28;19962;-56
2023/02/14 00:50:47;;;;;;;;;;;;;;;2.61;78.75;99951.13;5015686;28;19955;-58
2023/02/14 00:53:40;;;;;;;;;;;;;;;2.60;78.59;99944.06;5009249;28;20401;-57
2023/02/14 00:56:08;;;;;;;;;;;;;;;2.60;78.91;99958.31;5027872;28;19929;-58
2023/02/14 00:58:38;;;;;;;;;;;;;;;2.59;78.24;99954.00;5005384;28;19963;-57
2023/02/14 01:01:06;;;;;;;;;;;;;;;2.61;78.58;99956.47;5007082;28;19959;-59
2023/02/14 01:03:35;;;;;;;;;;;;;;;2.73;77.90;99945.94;4992246;28;19937;-57
2023/02/14 01:06:03;;;;;;;;;;;;;;;2.70;78.31;99944.47;4994027;28;19951;-56
2023/02/14 01:08:31;;;;;;;;;;;;;;;2.66;78.15;99945.09;4982819;28;19975;-57
2023/02/14 01:11:06;;;;;;;;;;;;;;;2.66;78.25;99945.91;4993725;28;20290;-57
2023/02/14 01:13:34;;;;;;;;;;;;;;;2.70;78.34;99951.69;5001004;28;19926;-58
2023/02/14 01:16:06;;;;;;;;;;;;;;;2.59;78.08;99953.16;4989913;28;19925;-58
2023/02/14 01:18:34;;;;;;;;;;;;;;;2.61;78.27;99946.56;4994333;28;20037;-57
2023/02/14 01:21:09;;;;;;;;;;;;;;;2.53;78.57;99949.47;5007860;28;19987;-58
2023/02/14 01:23:38;;;;;;;;;;;;;;;2.60;78.31;99950.25;4991052;28;19972;-57
2023/02/14 01:26:06;;;;;;;;;;;;;;;2.67;78.06;99950.28;5001817;28;19933;-57
2023/02/14 01:28:34;;;;;;;;;;;;;;;2.73;78.10;99959.34;5013202;28;19925;-57
2023/02/14 01:31:07;;;;;;;;;;;;;;;2.60;78.50;99954.81;5004252;28;19933;-57
2023/02/14 01:33:35;;;;;;;;;;;;;;;2.64;78.51;99958.72;4990913;28;19926;-57
2023/02/14 01:36:03;;;;;;;;;;;;;;;2.60;78.50;99955.63;4985626;28;20341;-57
2023/02/14 01:38:31;;;;;;;;;;;;;;;2.60;78.33;99950.25;5009746;28;19925;-58
2023/02/14 01:40:59;;;;;;;;;;;;;;;2.54;78.92;99955.66;5002702;28;19933;-59
2023/02/14 01:43:28;;;;;;;;;;;;;;;2.60;78.78;99949.44;4997615;28;19929;-61
2023/02/14 01:45:56;;;;;;;;;;;;;;;2.69;78.18;99947.38;4998573;28;19964;-60
2023/02/14 01:48:25;;;;;;;;;;;;;;;2.47;78.92;99950.31;4994613;28;19938;-58
2023/02/14 01:53:45;;;;;;;;;;;;;;;2.39;78.62;99952.38;4990681;28;20321;-57
2023/02/14 01:56:14;;;;;;;;;;;;;;;2.28;78.82;99945.78;5005412;28;19937;-57
2023/02/14 01:58:44;;;;;;;;;;;;;;;2.22;79.79;99947.44;4993918;28;19960;-59
2023/02/14 02:01:12;;;;;;;;;;;;;;;2.13;80.10;99939.78;5000229;28;19970;-58
2023/02/14 02:03:42;;;;;;;;;;;;;;;2.29;80.04;99942.06;4991232;28;19925;-57
2023/02/14 02:06:11;;;;;;;;;;;;;;;2.29;79.81;99947.41;4994469;28;19925;-57
2023/02/14 02:08:42;;;;;;;;;;;;;;;2.38;79.31;99945.34;4987430;28;19977;-56
2023/02/14 02:11:10;;;;;;;;;;;;;;;2.20;79.78;99948.69;4992355;28;19930;-57
2023/02/14 02:13:38;;;;;;;;;;;;;;;2.18;79.69;99948.88;4997683;28;19970;-57
2023/02/14 02:16:12;;;;;;;;;;;;;;;2.21;79.99;99947.63;4991234;28;19929;-57
2023/02/14 02:19:13;;;;;;;;;;;;;;;2.16;80.05;99937.53;5016061;28;20010;-58
2023/02/14 02:21:58;;;;;;;;;;;;;;;2.31;80.22;99942.69;5009734;28;20320;-57
2023/02/14 02:24:51;;;;;;;;;;;;;;;2.30;79.90;99933.81;5004689;28;19925;-57
2023/02/14 02:27:35;;;;;;;;;;;;;;;2.36;79.41;99940.22;5014980;28;19937;-58
2023/02/14 02:30:16;;;;;;;;;;;;;;;2.43;78.99;99922.22;4986550;28;19984;-67
2023/02/14 02:33:07;;;;;;;;;;;;;;;2.27;79.83;99936.06;4989610;28;20770;-56
2023/02/14 02:35:39;;;;;;;;;;;;;;;2.34;79.71;99935.06;4979464;28;19933;-58
2023/02/14 02:38:13;;;;;;;;;;;;;;;2.33;79.75;99940.59;4986622;28;19936;-57
2023/02/14 02:40:44;;;;;;;;;;;;;;;2.35;79.21;99941.25;4986907;28;20049;-57
2023/02/14 02:43:15;;;;;;;;;;;;;;;2.34;79.45;99936.88;5014327;28;19936;-57
2023/02/14 02:48:31;;;;;;;;;;;;;;;2.20;80.06;99933.41;4990217;28;19926;-57
2023/02/14 02:53:51;;;;;;;;;;;;;;;2.18;80.16;99946.19;5010933;28;19969;-58
2023/02/14 02:59:17;;;;;;;;;;;;;;;2.19;80.02;99936.31;4981624;28;19956;-57
2023/02/14 03:02:11;;;;;;;;;;;;;;;2.20;79.79;99935.28;5004533;28;20401;-57
2023/02/14 03:04:54;;;;;;;;;;;;;;;2.12;80.39;99936.28;4994828;28;19930;-57
2023/02/14 03:07:37;;;;;;;;;;;;;;;2.24;79.86;99933.84;5006225;28;20417;-58
2023/02/14 03:10:11;;;;;;;;;;;;;;;2.18;79.98;99934.63;4988822;28;20322;-60
2023/02/14 03:12:58;;;;;;;;;;;;;;;2.24;79.75;99925.78;4989707;28;19930;-57
2023/02/14 03:15:30;;;;;;;;;;;;;;;2.09;79.56;99934.84;4995133;28;19959;-65
2023/02/14 03:18:00;;;;;;;;;;;;;;;2.21;80.06;99944.97;5004175;28;19933;-56
2023/02/14 03:20:34;;;;;;;;;;;;;;;2.26;79.89;99935.25;4990770;28;19935;-57
2023/02/14 03:23:07;;;;;;;;;;;;;;;2.25;79.39;99941.66;4990390;28;19956;-58
2023/02/14 03:25:38;;;;;;;;;;;;;;;2.27;79.42;99944.13;4988955;28;19943;-57
2023/02/14 03:28:11;;;;;;;;;;;;;;;2.23;79.43;99941.03;4986525;28;20073;-57
2023/02/14 03:30:47;;;;;;;;;;;;;;;2.12;80.16;99944.34;4983625;28;20494;-57
2023/02/14 03:33:17;;;;;;;;;;;;;;;2.23;79.65;99938.34;5009517;28;19940;-58
2023/02/14 03:38:42;;;;;;;;;;;;;;;2.21;80.00;99953.00;4991304;28;19958;-57
2023/02/14 03:41:11;;;;;;;;;;;;;;;2.16;79.49;99948.25;4989076;28;19952;-58
2023/02/14 03:43:41;;;;;;;;;;;;;;;2.06;80.12;99937.94;4988046;28;19979;-57
2023/02/14 03:46:10;;;;;;;;;;;;;;;2.16;79.19;99944.75;4988584;28;19940;-57
2023/02/14 03:48:39;;;;;;;;;;;;;;;2.07;79.96;99939.59;4999712;28;20275;-57
2023/02/14 03:51:33;;;;;;;;;;;;;;;2.17;79.83;99938.34;5007304;28;20435;-58
2023/02/14 03:54:05;;;;;;;;;;;;;;;2.06;79.62;99937.13;5003762;28;19940;-58
2023/02/14 03:56:34;;;;;;;;;;;;;;;1.98;80.25;99934.66;5009664;28;19942;-59
2023/02/14 03:59:05;;;;;;;;;;;;;;;2.01;79.93;99934.22;5023217;28;19926;-57
2023/02/14 04:01:34;;;;;;;;;;;;;;;2.09;79.55;99932.19;5001730;28;19959;-58
2023/02/14 04:04:01;;;;;;;;;;;;;;;2.03;79.64;99932.19;5008540;28;20437;-57
2023/02/14 04:06:54;;;;;;;;;;;;;;;2.00;79.59;99941.44;5006825;28;21737;-56
2023/02/14 04:09:47;;;;;;;;;;;;;;;2.00;79.58;99932.59;5014813;28;20305;-62
2023/02/14 04:12:19;;;;;;;;;;;;;;;2.03;79.88;99940.22;5014372;28;19983;-56
2023/02/14 04:15:02;;;;;;;;;;;;;;;1.93;80.34;99943.31;5012657;28;19936;-66
2023/02/14 04:20:21;;;;;;;;;;;;;;;1.95;80.39;99940.41;5009763;28;20317;-59
2023/02/14 04:22:50;;;;;;;;;;;;;;;1.92;80.64;99938.97;5007761;28;19967;-57
2023/02/14 04:25:18;;;;;;;;;;;;;;;1.85;80.50;99938.13;5017555;28;19932;-57
2023/02/14 04:27:47;;;;;;;;;;;;;;;1.87;80.72;99936.09;5008871;28;20397;-56
2023/02/14 04:30:16;;;;;;;;;;;;;;;1.84;80.64;99934.63;5004744;28;19968;-57
2023/02/14 04:32:44;;;;;;;;;;;;;;;1.84;81.00;99929.28;5001046;28;20287;-56
2023/02/14 04:35:12;;;;;;;;;;;;;;;1.81;81.39;99928.84;5015017;28;19932;-57
2023/02/14 04:37:41;;;;;;;;;;;;;;;1.85;81.38;99924.72;5011091;28;21426;-58
2023/02/14 04:40:09;;;;;;;;;;;;;;;1.86;80.87;99915.66;5012413;28;21390;-58
2023/02/14 04:42:37;;;;;;;;;;;;;;;1.86;81.43;99920.19;5007693;28;20406;-58
2023/02/14 04:45:09;;;;;;;;;;;;;;;1.86;81.55;99910.28;5008444;28;20405;-63
2023/02/14 04:47:37;;;;;;;;;;;;;;;1.92;80.80;99919.38;5008587;28;19932;-64
2023/02/14 04:50:07;;;;;;;;;;;;;;;1.90;80.58;99908.88;5014159;28;19925;-59
2023/02/14 04:53:00;;;;;;;;;;;;;;;1.96;80.52;99905.34;5012026;28;20311;-58
2023/02/14 04:55:28;;;;;;;;;;;;;;;1.88;80.85;99908.25;5012287;28;19926;-58
2023/02/14 04:57:57;;;;;;;;;;;;;;;1.86;80.93;99910.28;5018836;28;19933;-58
2023/02/14 05:00:29;;;;;;;;;;;;;;;1.82;80.83;99909.09;5013124;28;20297;-57
2023/02/14 05:02:57;;;;;;;;;;;;;;;1.67;81.54;99905.78;4998898;28;19941;-56
2023/02/14 05:08:17;;;;;;;;;;;;;;;1.76;81.82;99900.00;4994138;28;19942;-57
2023/02/14 05:10:45;;;;;;;;;;;;;;;1.84;81.80;99907.00;5021366;28;19929;-58
2023/02/14 05:13:13;;;;;;;;;;;;;;;1.93;81.36;99904.97;5012137;28;19925;-58
2023/02/14 05:15:43;;;;;;;;;;;;;;;1.98;80.81;99905.16;5005791;28;20452;-56
2023/02/14 05:18:11;;;;;;;;;;;;;;;1.95;81.14;99898.34;5007105;28;19925;-58
2023/02/14 05:20:39;;;;;;;;;;;;;;;1.89;81.43;99901.84;5004510;28;19940;-57
2023/02/14 05:23:12;;;;;;;;;;;;;;;1.83;80.85;99908.88;5008097;28;19936;-57
2023/02/14 05:25:40;;;;;;;;;;;;;;;1.87;81.38;99906.63;5001151;28;19938;-63
2023/02/14 05:28:09;;;;;;;;;;;;;;;1.73;81.61;99899.59;4993643;28;19933;-60
2023/02/14 05:30:37;;;;;;;;;;;;;;;1.76;82.04;99901.88;4996665;28;20094;-57
2023/02/14 05:33:07;;;;;;;;;;;;;;;1.83;81.50;99903.50;5017604;28;19932;-58
2023/02/14 05:35:35;;;;;;;;;;;;;;;1.91;81.29;99901.66;4996544;28;19930;-57
2023/02/14 05:38:03;;;;;;;;;;;;;;;1.84;81.19;99907.00;5012428;28;19926;-58
2023/02/14 05:40:56;;;;;;;;;;;;;;;1.82;81.64;99901.03;5009329;28;20306;-59
2023/02/14 05:43:25;;;;;;;;;;;;;;;1.86;80.87;99890.72;5011026;28;19936;-56
2023/02/14 05:45:53;;;;;;;;;;;;;;;1.86;81.69;99898.75;5011855;28;19925;-56
2023/02/14 05:48:22;;;;;;;;;;;;;;;1.81;81.81;99892.19;5007174;28;19926;-63
2023/02/14 05:50:50;;;;;;;;;;;;;;;1.94;81.31;99896.72;5004058;28;19930;-57
2023/02/14 05:53:43;;;;;;;;;;;;;;;1.95;81.14;99901.03;5016236;28;19929;-56
2023/02/14 05:56:11;;;;;;;;;;;;;;;1.87;81.11;99892.38;5012732;28;19932;-56
2023/02/14 05:58:42;;;;;;;;;;;;;;;1.76;81.47;99893.81;5002639;28;19960;-56
2023/02/14 06:01:10;;;;;;;;;;;;;;;1.49;81.83;99888.44;4978851;28;19928;-56
2023/02/14 06:03:39;;;;;;;;;;;;;;;1.44;82.54;99880.19;4988595;28;19937;-57
2023/02/14 06:06:07;;;;;;;;;;;;;;;1.35;82.87;99889.44;5007258;28;20302;-56
2023/02/14 06:08:35;;;;;;;;;;;;;;;1.34;83.33;99887.78;5004650;28;19930;-56
2023/02/14 06:11:03;;;;;;;;;;;;;;;1.48;82.92;99892.13;5013602;28;19945;-56
2023/02/14 06:13:31;;;;;;;;;;;;;;;1.36;83.05;99899.13;4993083;28;19922;-58
2023/02/14 06:16:00;;;;;;;;;;;;;;;1.44;82.94;99885.56;4978137;28;19929;-59
2023/02/14 06:18:28;;;;;;;;;;;;;;;1.45;83.45;99886.38;5008812;28;19928;-58
2023/02/14 06:20:58;;;;;;;;;;;;;;;1.36;83.29;99893.75;5007991;28;19956;-57
2023/02/14 06:23:26;;;;;;;;;;;;;;;1.47;83.46;99893.16;5008674;28;19932;-59
2023/02/14 06:25:54;;;;;;;;;;;;;;;1.52;83.08;99893.38;5011795;28;19983;-57
2023/02/14 06:28:22;;;;;;;;;;;;;;;1.62;82.49;99894.84;5009467;28;19929;-63
2023/02/14 06:30:50;;;;;;;;;;;;;;;1.69;82.10;99896.47;5003993;28;20302;-57
2023/02/14 06:33:18;;;;;;;;;;;;;;;1.75;81.70;99897.50;5006722;28;20326;-56
2023/02/14 06:35:46;;;;;;;;;;;;;;;1.72;81.68;99912.16;5004962;28;19943;-58
2023/02/14 06:38:16;;;;;;;;;;;;;;;1.60;81.75;99910.28;5015120;28;20409;-62
2023/02/14 06:41:08;;;;;;;;;;;;;;;1.47;82.60;99906.56;5010500;28;20421;-58
2023/02/14 06:43:36;;;;;;;;;;;;;;;1.58;82.37;99900.59;5015233;28;19932;-57
2023/02/14 06:46:04;;;;;;;;;;;;;;;1.67;82.37;99908.44;5001041;28;20385;-57
2023/02/14 06:48:32;;;;;;;;;;;;;;;1.68;82.10;99912.78;5000862;28;19922;-57
2023/02/14 06:51:06;;;;;;;;;;;;;;;1.82;81.95;99914.44;5001399;28;19929;-58
2023/02/14 06:53:36;;;;;;;;;;;;;;;1.78;81.73;99915.88;5011688;28;19945;-56
2023/02/14 06:56:04;;;;;;;;;;;;;;;1.75;81.91;99918.94;5008746;28;19922;-56
2023/02/14 06:58:33;;;;;;;;;;;;;;;1.76;81.99;99920.63;5010232;28;19955;-56
2023/02/14 07:01:00;;;;;;;;;;;;;;;1.83;81.68;99910.72;4995950;28;19933;-58
2023/02/14 07:03:29;;;;;;;;;;;;;;;1.85;81.83;99919.38;5005479;28;19968;-58
2023/02/14 07:05:57;;;;;;;;;;;;;;;1.87;81.45;99906.63;5021199;28;20521;-60
2023/02/14 07:08:28;;;;;;;;;;;;;;;1.81;81.52;99912.78;4998348;28;19922;-57
2023/02/14 07:10:58;;;;;;;;;;;;;;;1.83;81.20;99916.09;5015697;28;19926;-56
2023/02/14 07:13:29;;;;;;;;;;;;;;;1.82;81.46;99909.09;5018345;28;19921;-59
2023/02/14 07:16:02;;;;;;;;;;;;;;;1.94;81.58;99906.59;5005023;28;19928;-58
2023/02/14 07:18:55;;;;;;;;;;;;;;;1.98;81.25;99905.16;5015971;28;19925;-57
2023/02/14 07:21:24;;;;;;;;;;;;;;;1.94;81.18;99910.09;5006273;28;19961;-60
2023/02/14 07:23:52;;;;;;;;;;;;;;;2.02;81.08;99912.56;5005456;28;19930;-57
2023/02/14 07:26:23;;;;;;;;;;;;;;;2.08;80.65;99913.63;5000119;28;19925;-56
2023/02/14 07:28:50;;;;;;;;;;;;;;;2.12;80.18;99908.66;4994790;28;19929;-57
2023/02/14 07:31:21;;;;;;;;;;;;;;;2.25;79.78;99908.66;5001091;28;19929;-56
2023/02/14 07:33:50;;;;;;;;;;;;;;;2.07;79.95;99915.44;5012650;28;19943;-57
2023/02/14 07:36:18;;;;;;;;;;;;;;;2.10;79.91;99912.38;5005001;28;19970;-57
2023/02/14 07:38:46;;;;;;;;;;;;;;;2.15;79.48;99905.56;4979888;28;20387;-56
2023/02/14 07:41:14;;;;;;;;;;;;;;;2.12;79.87;99904.13;4999500;28;19926;-56
2023/02/14 07:43:45;;;;;;;;;;;;;;;2.00;80.38;99909.28;4994841;28;19926;-56
2023/02/14 07:46:12;;;;;;;;;;;;;;;2.11;79.70;99902.47;5003010;28;20272;-63
2023/02/14 07:48:40;;;;;;;;;;;;;;;2.20;79.47;99900.41;4999986;28;19925;-62
2023/02/14 07:51:32;;;;;;;;;;;;;;;2.17;79.82;99896.28;5011251;28;19925;-57
2023/02/14 07:54:00;;;;;;;;;;;;;;;2.18;78.93;99902.47;4986455;28;19948;-57
2023/02/14 07:56:28;;;;;;;;;;;;;;;2.09;79.32;99905.38;5010770;28;20280;-57
2023/02/14 07:58:58;;;;;;;;;;;;;;;2.05;79.69;99896.06;4987738;28;19929;-56
2023/02/14 08:01:27;;;;;;;;;;;;;;;2.18;78.94;99897.91;4993304;28;19941;-58
2023/02/14 08:03:55;;;;;;;;;;;;;;;1.89;79.53;99898.34;4977901;28;19938;-63
2023/02/14 08:06:24;;;;;;;;;;;;;;;1.78;80.35;99897.94;5011774;28;20294;-56
2023/02/14 08:08:52;;;;;;;;;;;;;;;1.70;80.66;99894.63;4987467;28;19961;-58
2023/02/14 08:14:09;;;;;;;;;;;;;;;1.87;80.41;99900.44;4998864;28;19932;-58
2023/02/14 08:16:38;;;;;;;;;;;;;;;1.76;80.54;99893.81;4979842;28;19952;-56
2023/02/14 08:19:31;;;;;;;;;;;;;;;1.72;81.31;99889.91;5005939;28;19936;-56
2023/02/14 08:21:59;;;;;;;;;;;;;;;1.77;80.83;99887.44;4988914;28;19926;-56
2023/02/14 08:24:27;;;;;;;;;;;;;;;1.80;80.65;99885.16;4991824;28;20036;-56
2023/02/14 08:26:55;;;;;;;;;;;;;;;1.97;80.32;99890.94;4982600;28;19926;-56
2023/02/14 08:29:24;;;;;;;;;;;;;;;2.00;80.46;99890.50;5012849;28;19930;-62
2023/02/14 08:32:20;;;;;;;;;;;;;;;2.07;80.28;99888.63;4997745;28;20335;-58
2023/02/14 08:34:48;;;;;;;;;;;;;;;2.16;79.67;99889.25;5012721;28;20242;-56
2023/02/14 08:37:17;;;;;;;;;;;;;;;2.12;79.84;99893.38;4992422;28;19937;-63
2023/02/14 08:39:44;;;;;;;;;;;;;;;2.19;79.68;99893.41;5013699;28;20279;-56
2023/02/14 08:42:13;;;;;;;;;;;;;;;2.12;79.41;99893.38;4999783;28;19956;-56
2023/02/14 08:47:37;;;;;;;;;;;;;;;2.14;79.26;99895.88;4985536;28;19968;-56
2023/02/14 08:50:06;;;;;;;;;;;;;;;2.12;79.07;99898.75;5012246;28;20639;-56
2023/02/14 08:53:02;;;;;;;;;;;;;;;2.09;79.22;99894.63;5008418;28;19930;-58
2023/02/14 08:55:30;;;;;;;;;;;;;;;1.99;79.44;99899.59;5002525;28;19934;-56
2023/02/14 09:00:51;;;;;;;;;;;;;;;2.08;79.51;99887.63;5006659;28;19925;-59
2023/02/14 09:03:19;;;;;;;;;;;;;;;2.10;79.61;99872.16;5025890;28;19925;-55
2023/02/14 09:05:50;;;;;;;;;;;;;;;2.31;78.76;99894.41;5023775;28;19930;-60
2023/02/14 09:08:18;;;;;;;;;;;;;;;2.35;78.77;99879.56;5016478;28;20290;-56
2023/02/14 09:10:47;;;;;;;;;;;;;;;2.45;77.86;99882.63;5025696;28;19975;-59
2023/02/14 09:13:15;;;;;;;;;;;;;;;2.41;78.24;99880.56;5025960;28;19937;-59
2023/02/14 09:15:43;;;;;;;;;;;;;;;2.40;78.44;99886.94;5020167;28;19929;-56
2023/02/14 09:18:12;;;;;;;;;;;;;;;2.17;78.32;99884.72;5032984;28;19948;-56
2023/02/14 09:20:43;;;;;;;;;;;;;;;2.06;79.09;99887.00;5029361;28;19925;-57
2023/02/14 09:23:38;;;;;;;;;;;;;;;2.21;78.60;99892.16;5023268;28;19933;-56
2023/02/14 09:26:07;;;;;;;;;;;;;;;2.27;78.33;99880.59;5028079;28;19941;-57
2023/02/14 09:28:35;;;;;;;;;;;;;;;2.15;78.61;99878.75;5022901;28;19959;-56
2023/02/14 09:31:08;;;;;;;;;;;;;;;2.35;78.08;99876.88;5023590;28;19925;-56
2023/02/14 09:33:37;;;;;;;;;;;;;;;2.38;78.72;99881.78;5013534;28;19975;-57
2023/02/14 09:36:12;;;;;;;;;;;;;;;2.38;78.45;99880.97;5029496;28;20358;-56
2023/02/14 09:38:40;;;;;;;;;;;;;;;2.33;78.23;99878.91;5030313;28;20750;-56
2023/02/14 09:41:09;;;;;;;;;;;;;;;2.24;78.27;99874.84;5031550;28;19932;-56
2023/02/14 09:43:38;;;;;;;;;;;;;;;2.49;78.63;99878.47;5026230;28;19940;-58
2023/02/14 09:46:05;;;;;;;;;;;;;;;2.68;77.98;99881.31;5019597;28;20345;-58
2023/02/14 09:51:29;;;;;;;;;;;;;;;2.72;77.40;99877.19;5024323;28;20359;-57
2023/02/14 09:53:58;;;;;;;;;;;;;;;2.74;76.91;99875.09;5029615;28;19925;-60
2023/02/14 09:56:30;;;;;;;;;;;;;;;2.72;76.91;99874.50;5026009;28;19933;-57
2023/02/14 09:59:15;;;;;;;;;;;;;;;2.55;77.00;99872.25;5005843;28;19932;-56
2023/02/14 10:01:43;;;;;;;;;;;;;;;2.54;77.37;99880.53;5002872;28;20023;-56
2023/02/14 10:04:14;;;;;;;;;;;;;;;2.47;78.19;99875.19;5012366;28;19929;-56
2023/02/14 10:06:48;;;;;;;;;;;;;;;2.63;78.06;99877.41;5026855;28;20271;-60
2023/02/14 10:09:28;;;;;;;;;;;;;;;2.86;76.93;99878.75;5027665;28;19983;-56
2023/02/14 10:11:57;;;;;;;;;;;;;;;2.82;76.98;99877.53;5026992;28;19925;-55
2023/02/14 10:14:25;;;;;;;;;;;;;;;2.83;77.28;99877.34;5026500;28;19925;-56
2023/02/14 10:16:53;;;;;;;;;;;;;;;2.76;77.05;99878.38;5001382;28;19929;-60
2023/02/14 10:19:47;;;;;;;;;;;;;;;2.82;77.09;99878.38;5027595;28;20437;-57
2023/02/14 10:22:17;;;;;;;;;;;;;;;2.86;76.98;99870.72;5029539;28;20290;-61
2023/02/14 10:24:47;;;;;;;;;;;;;;;2.99;76.55;99873.34;5028349;28;19979;-57
2023/02/14 10:27:18;;;;;;;;;;;;;;;2.96;76.43;99868.41;5028048;28;19947;-59
2023/02/14 10:29:47;;;;;;;;;;;;;;;2.97;76.16;99867.34;5024557;28;19925;-56
2023/02/14 10:32:17;;;;;;;;;;;;;;;3.24;75.89;99869.91;5015053;28;19964;-57
2023/02/14 10:34:47;;;;;;;;;;;;;;;3.26;75.08;99870.53;5025053;28;19965;-56
2023/02/14 10:37:20;;;;;;;;;;;;;;;3.24;76.02;99862.66;5022405;28;20335;-60
2023/02/14 10:39:53;;;;;;;;;;;;;;;3.36;75.63;99852.88;5022137;28;19933;-59
2023/02/14 10:42:23;;;;;;;;;;;;;;;3.29;75.36;99859.34;5026035;28;19986;-59
2023/02/14 10:45:16;;;;;;;;;;;;;;;3.45;75.52;99866.06;5021950;28;19925;-57
2023/02/14 10:47:48;;;;;;;;;;;;;;;3.31;74.97;99863.47;5007372;28;19926;-56
2023/02/14 10:50:41;;;;;;;;;;;;;;;3.23;75.41;99857.50;5027551;28;19925;-61
2023/02/14 10:53:13;;;;;;;;;;;;;;;3.15;76.17;99859.41;5023894;28;20204;-60
2023/02/14 10:56:07;;;;;;;;;;;;;;;3.18;76.67;99850.09;5023193;28;19932;-57
2023/02/14 10:58:36;;;;;;;;;;;;;;;3.38;76.13;99852.66;5021076;28;19926;-56
2023/02/14 11:01:05;;;;;;;;;;;;;;;3.60;75.19;99848.56;5021055;28;19932;-57
2023/02/14 11:03:33;;;;;;;;;;;;;;;3.61;74.76;99844.84;5028627;28;20341;-57
2023/02/14 11:06:02;;;;;;;;;;;;;;;3.53;74.47;99844.31;5026827;28;20028;-57
2023/02/14 11:08:34;;;;;;;;;;;;;;;3.34;74.91;99843.38;5024660;28;19976;-58
2023/02/14 11:11:03;;;;;;;;;;;;;;;3.08;76.20;99833.63;5030504;28;19925;-59
2023/02/14 11:13:33;;;;;;;;;;;;;;;3.06;76.66;99833.03;5027573;28;19932;-56
2023/02/14 11:16:03;;;;;;;;;;;;;;;3.13;76.70;99831.94;5015745;28;19933;-56
2023/02/14 11:18:36;;;;;;;;;;;;;;;3.45;76.27;99837.31;5027113;28;19952;-60
2023/02/14 11:21:06;;;;;;;;;;;;;;;3.57;75.72;99832.91;5026756;28;19968;-57
2023/02/14 11:23:39;;;;;;;;;;;;;;;3.66;75.43;99833.44;5013034;28;19936;-57
2023/02/14 11:26:11;;;;;;;;;;;;;;;3.76;74.36;99835.63;5020159;28;19933;-56
2023/02/14 11:31:39;;;;;;;;;;;;;;;3.98;73.66;99817.25;5019483;28;20010;-56
2023/02/14 11:34:21;;;;;;;;;;;;;;;4.00;73.77;99816.00;5026134;28;19925;-56
2023/02/14 11:36:49;;;;;;;;;;;;;;;4.09;73.31;99814.63;5026079;28;20178;-60
2023/02/14 11:39:21;;;;;;;;;;;;;;;4.05;73.04;99815.28;5016830;28;19933;-58
2023/02/14 11:41:49;;;;;;;;;;;;;;;4.04;72.53;99813.66;5025253;28;19929;-59
2023/02/14 11:44:21;;;;;;;;;;;;;;;4.13;72.64;99817.72;5008909;28;19943;-56
2023/02/14 11:46:50;;;;;;;;;;;;;;;3.87;73.40;99810.72;5000959;28;20007;-56
2023/02/14 11:49:28;;;;;;;;;;;;;;;3.93;73.57;99802.59;5000220;28;19925;-56
2023/02/14 11:51:57;;;;;;;;;;;;;;;4.11;73.38;99806.38;5023898;28;19925;-58
2023/02/14 11:54:30;;;;;;;;;;;;;;;4.10;72.77;99805.53;5025925;28;19925;-57
2023/02/14 11:57:02;;;;;;;;;;;;;;;4.17;73.18;99803.59;5019508;28;19937;-57
2023/02/14 11:59:31;;;;;;;;;;;;;;;4.22;72.74;99810.19;5025767;28;19972;-59
2023/02/14 12:04:53;;;;;;;;;;;;;;;4.06;72.40;99788.19;5018849;28;19933;-57
2023/02/14 12:07:46;;;;;;;;;;;;;;;4.03;72.91;99788.63;5025255;28;19929;-60
2023/02/14 12:10:40;;;;;;;;;;;;;;;4.24;71.90;99787.38;5019212;28;19956;-57
2023/02/14 12:13:20;;;;;;;;;;;;;;;4.18;72.18;99783.72;5017969;28;19943;-57
2023/02/14 12:15:49;;;;;;;;;;;;;;;4.19;72.00;99774.59;5015921;28;20321;-57
2023/02/14 12:18:21;;;;;;;;;;;;;;;4.11;72.06;99769.53;5024561;28;19944;-57
2023/02/14 12:20:51;;;;;;;;;;;;;;;4.17;72.41;99765.94;5025311;28;20310;-56
2023/02/14 12:23:23;;;;;;;;;;;;;;;4.22;71.95;99759.88;5024345;28;20643;-60
2023/02/14 12:25:54;;;;;;;;;;;;;;;4.50;72.24;99753.13;5010239;28;19933;-56
2023/02/14 12:28:23;;;;;;;;;;;;;;;4.68;70.63;99753.09;5024199;28;19937;-59
2023/02/14 12:30:53;;;;;;;;;;;;;;;4.64;70.78;99747.34;5020719;28;19925;-57
2023/02/14 12:33:22;;;;;;;;;;;;;;;4.69;70.87;99746.69;5009210;28;19925;-57
2023/02/14 12:35:53;;;;;;;;;;;;;;;4.83;70.75;99744.59;5017170;28;19933;-57
2023/02/14 12:38:23;;;;;;;;;;;;;;;4.88;70.66;99736.66;5030532;28;20298;-57
2023/02/14 12:41:17;;;;;;;;;;;;;;;4.97;70.10;99735.28;5027951;28;19925;-57
2023/02/14 12:43:49;;;;;;;;;;;;;;;4.93;69.90;99734.09;5030846;28;19933;-57
2023/02/14 12:46:45;;;;;;;;;;;;;;;4.93;70.08;99728.72;5020562;28;20614;-56
2023/02/14 12:49:28;;;;;;;;;;;;;;;4.97;69.62;99725.34;4986915;28;19959;-58
2023/02/14 12:51:58;;;;;;;;;;;;;;;5.08;70.13;99725.59;5025764;28;19951;-57
2023/02/14 12:54:51;;;;;;;;;;;;;;;4.91;69.16;99720.06;5012515;28;19943;-56
2023/02/14 12:57:28;;;;;;;;;;;;;;;4.78;69.40;99722.94;5029388;28;19956;-63
2023/02/14 13:00:00;;;;;;;;;;;;;;;4.88;69.69;99720.50;5030608;28;19966;-56
2023/02/14 13:02:55;;;;;;;;;;;;;;;4.84;69.80;99717.44;5026816;28;19925;-57
2023/02/14 13:05:22;;;;;;;;;;;;;;;4.92;69.89;99716.31;5034482;28;19972;-64
2023/02/14 13:07:56;;;;;;;;;;;;;;;4.82;69.81;99705.28;5030383;28;19933;-57
2023/02/14 13:10:28;;;;;;;;;;;;;;;4.78;70.89;99704.06;5030894;28;20350;-56
2023/02/14 13:12:59;;;;;;;;;;;;;;;4.87;70.37;99708.91;5028720;28;19925;-57
2023/02/14 13:15:30;;;;;;;;;;;;;;;5.05;69.86;99705.31;5016431;28;19975;-61
2023/02/14 13:18:00;;;;;;;;;;;;;;;5.00;69.55;99706.00;5025494;28;20328;-58
2023/02/14 13:23:27;;;;;;;;;;;;;;;5.31;69.13;99697.88;5025909;28;19933;-61
2023/02/14 13:25:57;;;;;;;;;;;;;;;5.36;69.10;99690.72;5001610;28;20089;-57
2023/02/14 13:28:25;;;;;;;;;;;;;;;5.45;67.99;99691.19;5024770;28;19955;-58
2023/02/14 13:30:56;;;;;;;;;;;;;;;5.41;68.33;99693.53;5017265;28;20315;-57
2023/02/14 13:33:27;;;;;;;;;;;;;;;5.26;68.88;99688.59;5024645;28;19960;-61
2023/02/14 13:35:56;;;;;;;;;;;;;;;5.23;68.86;99680.19;5027264;28;20034;-57
2023/02/14 13:38:24;;;;;;;;;;;;;;;5.25;69.15;99684.25;5008977;28;19976;-60
2023/02/14 13:40:53;;;;;;;;;;;;;;;5.21;68.86;99676.88;5027091;28;19932;-59
2023/02/14 13:43:39;;;;;;;;;;;;;;;5.03;69.11;99675.09;5025404;28;19964;-58
2023/02/14 13:46:09;;;;;;;;;;;;;;;4.97;69.66;99684.13;5011149;28;20090;-57
2023/02/14 13:48:37;;;;;;;;;;;;;;;4.90;70.11;99673.47;5017199;28;19933;-61
2023/02/14 13:51:08;;;;;;;;;;;;;;;4.92;69.49;99675.91;5024969;28;19991;-64
2023/02/14 13:53:37;;;;;;;;;;;;;;;4.90;69.74;99670.75;5020335;28;19990;-59
2023/02/14 13:56:06;;;;;;;;;;;;;;;4.88;69.42;99674.72;5028313;28;19936;-57
2023/02/14 13:58:34;;;;;;;;;;;;;;;4.97;69.53;99671.47;5034291;28;19978;-59
2023/02/14 14:04:09;;;;;;;;;;;;;;;5.15;69.16;99667.84;5151088;27;19937;-62
2023/02/14 14:06:56;;;;;;;;;;;;;;;5.38;68.73;99666.22;5127526;27;20448;-58
2023/02/14 14:09:54;;;;;;;;;;;;;;;5.49;68.55;99668.13;5133187;27;20029;-58
2023/02/14 14:12:41;;;;;;;;;;;;;;;5.52;68.67;99668.44;5117649;27;19957;-58